Texas Enterprise — KSDF — position and weather

sailwx.info

Track history (hours):
 
Tides and Currents Weather Stations Pressure Air Temp Water Temp Dewpoint Dewpoint Depression Visibility Wind Speed Wind Dir Waves Ship Positions

Texas Enterprise

Owner: U.S. United Ocean Services, LLC, Tampa, FL. More information available from US FCC via Universal Licensing System and Coast Guard Vessel Documentation Center.

Last reported at 2015-Mar-07 12:33 UTC. Time now 2015-Mar-29 03:10 UTC.
Position N 25°36' W 080°01'.
Warning: this ship's position is 21 days out of date.

Type: Cargo ship. MMSI: 366163000.

Date/timePositionNaut miles runAvg speedWind from/ knotsBaromVisibWave heightAir tempDewpointWater temp
2015-Mar-07 12:33N 25°36' W 080°01'1312.8
2015-Mar-07 11:33N 25°48' W 080°00'1313.0
2015-Mar-07 10:33N 26°01' W 079°58'1413.6
2015-Mar-07 09:33N 26°15' W 079°58'1313.4
2015-Mar-07 08:33N 26°28' W 079°57'1514.6
2015-Mar-07 07:33N 26°43' W 079°56'1414.6
2015-Mar-07 06:33N 26°58' W 079°55'  
2015-Mar-01 11:31N 27°05' W 079°44'1414.9
2015-Mar-01 10:33N 26°51' W 079°45'1515.1
2015-Mar-01 09:33N 26°36' W 079°46'1515.0
2015-Mar-01 08:33N 26°21' W 079°48'1514.8
2015-Mar-01 07:33N 26°07' W 079°50'1515.2
2015-Mar-01 06:33N 25°52' W 079°52'  
2015-Feb-26 05:15N 29°21' W 094°45'1011.9
2015-Feb-26 04:24N 29°29' W 094°52'1011.4
2015-Feb-26 03:33N 29°37' W 094°57'9 8.9
2015-Feb-26 02:33N 29°44' W 095°03'4 4.5
2015-Feb-26 01:33N 29°44' W 095°09'0 0.0
2015-Feb-26 00:33N 29°44' W 095°09'0 0.0
2015-Feb-25 23:33N 29°44' W 095°09'0 0.0
2015-Feb-25 22:33N 29°44' W 095°09'0 0.0
2015-Feb-25 20:33N 29°44' W 095°09'0 0.0
2015-Feb-25 19:33N 29°44' W 095°09'0 0.0
2015-Feb-25 18:33N 29°44' W 095°09'0 0.0
2015-Feb-25 17:33N 29°44' W 095°09'0 0.0
2015-Feb-25 16:33N 29°44' W 095°09'0 0.0
2015-Feb-25 15:33N 29°44' W 095°09'0 0.0
2015-Feb-25 14:32N 29°44' W 095°09'0 0.0
2015-Feb-25 13:32N 29°44' W 095°09'  
Track history (hours):
 
Tides and Currents Weather Stations Pressure Air Temp Water Temp Dewpoint Dewpoint Depression Visibility Wind Speed Wind Dir Waves Ship Positions

Texas Enterprise

Owner: U.S. United Ocean Services, LLC, Tampa, FL. More information available from US FCC via Universal Licensing System and Coast Guard Vessel Documentation Center.

Last reported at 2015-Mar-07 12:33 UTC. Time now 2015-Mar-29 03:10 UTC.
Position N 25°36' W 080°01'.
Warning: this ship's position is 21 days out of date.

Type: Cargo ship. MMSI: 366163000.

Date/timePositionNaut miles runAvg speedWind from/ knotsBaromVisibWave heightAir tempDewpointWater temp
2015-Mar-07 12:33N 25°36' W 080°01'1312.8
2015-Mar-07 11:33N 25°48' W 080°00'1313.0
2015-Mar-07 10:33N 26°01' W 079°58'1413.6
2015-Mar-07 09:33N 26°15' W 079°58'1313.4
2015-Mar-07 08:33N 26°28' W 079°57'1514.6
2015-Mar-07 07:33N 26°43' W 079°56'1414.6
2015-Mar-07 06:33N 26°58' W 079°55'  
2015-Mar-01 11:31N 27°05' W 079°44'1414.9
2015-Mar-01 10:33N 26°51' W 079°45'1515.1
2015-Mar-01 09:33N 26°36' W 079°46'1515.0
2015-Mar-01 08:33N 26°21' W 079°48'1514.8
2015-Mar-01 07:33N 26°07' W 079°50'1515.2
2015-Mar-01 06:33N 25°52' W 079°52'  
2015-Feb-26 05:15N 29°21' W 094°45'1011.9
2015-Feb-26 04:24N 29°29' W 094°52'1011.4
2015-Feb-26 03:33N 29°37' W 094°57'9 8.9
2015-Feb-26 02:33N 29°44' W 095°03'4 4.5
2015-Feb-26 01:33N 29°44' W 095°09'0 0.0
2015-Feb-26 00:33N 29°44' W 095°09'0 0.0
2015-Feb-25 23:33N 29°44' W 095°09'0 0.0
2015-Feb-25 22:33N 29°44' W 095°09'0 0.0
2015-Feb-25 20:33N 29°44' W 095°09'0 0.0
2015-Feb-25 19:33N 29°44' W 095°09'0 0.0
2015-Feb-25 18:33N 29°44' W 095°09'0 0.0
2015-Feb-25 17:33N 29°44' W 095°09'0 0.0
2015-Feb-25 16:33N 29°44' W 095°09'0 0.0
2015-Feb-25 15:33N 29°44' W 095°09'0 0.0
2015-Feb-25 14:32N 29°44' W 095°09'0 0.0
2015-Feb-25 13:32N 29°44' W 095°09'  

Dump ship's entire track history